createdAt,value
2023-04-07T00:01:15.661Z,6.57
2023-04-07T00:03:43.969Z,6.11
2023-04-07T00:06:11.913Z,5.89
2023-04-07T00:08:39.704Z,6.15
2023-04-07T00:11:08.833Z,6.38
2023-04-07T00:13:36.571Z,5.98
2023-04-07T00:16:04.365Z,5.93
2023-04-07T00:18:33.520Z,5.74
2023-04-07T00:21:01.248Z,5.87
2023-04-07T00:23:28.974Z,5.78
2023-04-07T00:25:56.766Z,6.19
2023-04-07T00:28:24.662Z,5.86
2023-04-07T00:30:52.390Z,6.06
2023-04-07T00:33:20.427Z,6.28
2023-04-07T00:35:49.654Z,6.24
2023-04-07T00:38:17.409Z,6.52
2023-04-07T00:40:45.139Z,6.39
2023-04-07T00:43:13.131Z,6.14
2023-04-07T00:45:40.882Z,5.89
2023-04-07T00:48:09.064Z,5.94
2023-04-07T00:50:36.923Z,5.77
2023-04-07T00:53:06.646Z,6.11
2023-04-07T00:55:34.563Z,5.85
2023-04-07T00:58:02.304Z,6.23
2023-04-07T01:00:30.487Z,6.02
2023-04-07T01:03:02.637Z,6.21
2023-04-07T01:05:40.471Z,5.95
2023-04-07T01:08:16.007Z,6.34
2023-04-07T01:10:51.151Z,6.08
2023-04-07T01:13:26.671Z,6.42
2023-04-07T01:15:57.488Z,6.16
2023-04-07T01:18:28.791Z,6.52
2023-04-07T01:21:01.922Z,6.16
2023-04-07T01:23:42.476Z,6.18
2023-04-07T01:26:20.829Z,6.15
2023-04-07T01:31:52.365Z,6.16
2023-04-07T01:34:20.843Z,6.28
2023-04-07T01:36:50.931Z,6.09
2023-04-07T01:39:19.691Z,5.72
2023-04-07T01:41:48.268Z,5.51
2023-04-07T01:44:16.436Z,5.66
2023-04-07T01:46:44.279Z,6.10
2023-04-07T01:49:14.638Z,5.82
2023-04-07T01:51:43.452Z,5.44
2023-04-07T01:54:11.597Z,6.04
2023-04-07T01:56:39.317Z,5.62
2023-04-07T01:59:07.145Z,5.36
2023-04-07T02:01:35.492Z,5.07
2023-04-07T02:04:12.491Z,5.67
2023-04-07T02:06:49.113Z,5.30
2023-04-07T02:09:17.956Z,5.64
2023-04-07T02:11:46.356Z,5.61
2023-04-07T02:14:15.597Z,5.29
2023-04-07T02:16:45.791Z,6.06
2023-04-07T02:19:15.339Z,5.97
2023-04-07T02:21:45.650Z,5.57
2023-04-07T02:24:13.762Z,5.59
2023-04-07T02:26:41.841Z,6.06
2023-04-07T02:29:09.617Z,5.99
2023-04-07T02:31:37.388Z,5.42
2023-04-07T02:34:05.342Z,5.49
2023-04-07T02:36:33.089Z,5.88
2023-04-07T02:39:02.217Z,5.58
2023-04-07T02:41:29.967Z,5.38
2023-04-07T02:43:57.856Z,5.78
2023-04-07T02:46:25.924Z,5.58
2023-04-07T02:48:53.770Z,5.75
2023-04-07T02:51:21.584Z,5.50
2023-04-07T02:53:49.337Z,5.65
2023-04-07T02:56:18.484Z,5.73
2023-04-07T02:58:46.697Z,6.01
2023-04-07T03:01:14.519Z,5.58
2023-04-07T03:03:44.901Z,5.81
2023-04-07T03:06:12.774Z,5.95
2023-04-07T03:08:40.822Z,5.58
2023-04-07T03:11:08.570Z,5.63
2023-04-07T03:13:37.682Z,5.75
2023-04-07T03:16:05.566Z,5.56
2023-04-07T03:18:33.286Z,5.68
2023-04-07T03:21:01.008Z,5.75
2023-04-07T03:23:29.434Z,5.94
2023-04-07T03:25:58.263Z,5.38
2023-04-07T03:28:26.000Z,5.65
2023-04-07T03:30:55.115Z,5.72
2023-04-07T03:33:22.909Z,5.41
2023-04-07T03:35:50.639Z,5.62
2023-04-07T03:38:18.447Z,5.37
2023-04-07T03:40:46.397Z,5.80
2023-04-07T03:43:15.065Z,5.40
2023-04-07T03:45:43.032Z,5.62
2023-04-07T03:48:12.329Z,5.64
2023-04-07T03:50:40.799Z,5.77
2023-04-07T03:53:09.294Z,5.71
2023-04-07T03:55:37.995Z,5.46
2023-04-07T03:58:05.811Z,5.33
2023-04-07T04:00:33.928Z,5.54
2023-04-07T04:03:01.947Z,5.49
2023-04-07T04:05:31.171Z,5.63
2023-04-07T04:07:58.894Z,5.33
2023-04-07T04:10:27.278Z,4.85
2023-04-07T04:12:55.021Z,5.03
2023-04-07T04:15:22.880Z,5.08
2023-04-07T04:17:50.721Z,5.33
2023-04-07T04:20:18.619Z,5.49
2023-04-07T04:22:47.713Z,5.17
2023-04-07T04:25:15.841Z,5.03
2023-04-07T04:27:43.587Z,5.68
2023-04-07T04:30:11.802Z,5.64
2023-04-07T04:32:39.655Z,5.55
2023-04-07T04:35:07.998Z,5.38
2023-04-07T04:37:35.804Z,5.24
2023-04-07T04:40:08.437Z,5.29
2023-04-07T04:42:36.949Z,5.23
2023-04-07T04:45:05.289Z,5.22
2023-04-07T04:47:33.052Z,5.57
2023-04-07T04:50:00.963Z,5.08
2023-04-07T04:52:28.815Z,5.15
2023-04-07T04:54:56.724Z,5.43
2023-04-07T04:57:25.905Z,5.44
2023-04-07T04:59:53.659Z,5.15
2023-04-07T05:02:22.057Z,5.33
2023-04-07T05:04:50.048Z,5.72
2023-04-07T05:07:17.879Z,5.35
2023-04-07T05:09:45.651Z,5.36
2023-04-07T05:12:13.391Z,5.82
2023-04-07T05:14:42.560Z,5.81
2023-04-07T05:17:10.621Z,5.73
2023-04-07T05:19:38.367Z,5.87
2023-04-07T05:22:06.077Z,6.17
2023-04-07T05:24:33.832Z,5.64
2023-04-07T05:27:01.960Z,5.95
2023-04-07T05:29:29.868Z,6.11
2023-04-07T05:31:58.979Z,6.19
2023-04-07T05:34:26.949Z,5.94
2023-04-07T05:36:54.753Z,6.04
2023-04-07T05:39:22.480Z,5.87
2023-04-07T05:41:50.276Z,6.19
2023-04-07T05:44:17.995Z,5.87
2023-04-07T05:46:45.791Z,5.81
2023-04-07T05:49:20.027Z,5.70
2023-04-07T05:51:49.241Z,5.92
2023-04-07T05:54:17.356Z,5.87
2023-04-07T05:56:45.499Z,5.88
2023-04-07T05:59:13.240Z,5.85
2023-04-07T06:01:41.185Z,5.92
2023-04-07T06:04:08.975Z,6.14
2023-04-07T06:06:38.191Z,5.82
2023-04-07T06:09:07.007Z,6.23
2023-04-07T06:11:36.018Z,6.26
2023-04-07T06:14:03.756Z,6.28
2023-04-07T06:16:31.570Z,6.31
2023-04-07T06:18:59.361Z,6.51
2023-04-07T06:21:27.420Z,6.98
2023-04-07T06:23:56.509Z,6.73
2023-04-07T06:26:24.618Z,6.71
2023-04-07T06:28:53.095Z,7.03
2023-04-07T06:31:21.054Z,6.97
2023-04-07T06:33:49.092Z,7.30
2023-04-07T06:36:17.401Z,7.33
2023-04-07T06:38:45.602Z,7.35
2023-04-07T06:41:17.116Z,7.55
2023-04-07T06:43:45.437Z,7.00
2023-04-07T06:46:13.221Z,7.21
2023-04-07T06:48:41.024Z,7.28
2023-04-07T06:51:08.732Z,7.28
2023-04-07T06:53:36.475Z,8.11
2023-04-07T06:56:05.450Z,7.86
2023-04-07T06:58:35.295Z,7.61
2023-04-07T07:01:03.890Z,7.40
2023-04-07T07:03:31.889Z,7.31
2023-04-07T07:06:00.085Z,7.36
2023-04-07T07:08:29.222Z,7.55
2023-04-07T07:10:56.952Z,7.67
2023-04-07T07:13:26.125Z,7.64
2023-04-07T07:15:55.435Z,8.10
2023-04-07T07:18:23.196Z,8.15
2023-04-07T07:20:51.188Z,8.63
2023-04-07T07:23:18.987Z,7.82
2023-04-07T07:25:46.750Z,8.11
2023-04-07T07:28:14.497Z,7.76
2023-04-07T07:30:43.375Z,7.98
2023-04-07T07:33:13.032Z,8.53
2023-04-07T07:35:41.452Z,9.03
2023-04-07T07:38:09.343Z,8.46
2023-04-07T07:40:37.089Z,8.30
2023-04-07T07:43:04.810Z,8.65
2023-04-07T07:45:32.615Z,8.22
2023-04-07T07:48:00.829Z,9.00
2023-04-07T07:50:30.175Z,8.44
2023-04-07T07:52:57.921Z,9.24
2023-04-07T07:55:25.780Z,9.04
2023-04-07T07:57:53.538Z,8.59
2023-04-07T08:00:21.564Z,8.93
2023-04-07T08:02:49.401Z,9.42
2023-04-07T08:05:17.169Z,9.69
2023-04-07T08:07:46.898Z,9.90
2023-04-07T08:10:14.698Z,9.89
2023-04-07T08:12:42.568Z,9.26
2023-04-07T08:15:10.775Z,9.88
2023-04-07T08:17:39.240Z,9.82
2023-04-07T08:20:08.438Z,9.93
2023-04-07T08:22:36.150Z,10.01
2023-04-07T08:25:05.775Z,9.91
2023-04-07T08:27:33.515Z,10.27
2023-04-07T08:30:02.206Z,10.05
2023-04-07T08:32:36.611Z,10.36
2023-04-07T08:35:04.623Z,10.28
2023-04-07T08:37:32.437Z,10.94
2023-04-07T08:40:00.196Z,10.71
2023-04-07T08:42:30.993Z,11.16
2023-04-07T08:45:03.424Z,10.79
2023-04-07T08:47:33.468Z,10.00
2023-04-07T08:50:03.781Z,9.95
2023-04-07T08:52:36.317Z,9.97
2023-04-07T08:55:06.838Z,10.14
2023-04-07T08:57:36.137Z,9.94
2023-04-07T09:00:05.822Z,10.27
2023-04-07T09:02:35.099Z,10.67
2023-04-07T09:05:05.522Z,10.19
2023-04-07T09:07:34.600Z,10.59
2023-04-07T09:10:02.730Z,10.72
2023-04-07T09:12:31.273Z,10.26
2023-04-07T09:15:00.779Z,11.20
2023-04-07T09:17:29.557Z,9.94
2023-04-07T09:19:58.033Z,10.35
2023-04-07T09:22:39.444Z,10.75
2023-04-07T09:25:18.079Z,11.25
2023-04-07T09:27:56.291Z,10.57
2023-04-07T09:30:26.375Z,10.24
2023-04-07T09:32:54.408Z,10.51
2023-04-07T09:35:23.839Z,10.64
2023-04-07T09:38:05.606Z,10.55
2023-04-07T09:40:34.285Z,10.45
2023-04-07T09:43:02.950Z,10.39
2023-04-07T09:45:40.299Z,10.31
2023-04-07T09:48:08.748Z,10.12
2023-04-07T09:50:38.072Z,10.18
2023-04-07T09:53:05.908Z,9.86
2023-04-07T09:55:34.978Z,10.21
2023-04-07T09:58:06.373Z,10.26
2023-04-07T10:00:36.949Z,10.15
2023-04-07T10:03:05.317Z,10.06
2023-04-07T10:05:35.421Z,9.78
2023-04-07T10:08:03.465Z,10.53
2023-04-07T10:10:32.724Z,10.17
2023-04-07T10:13:00.638Z,9.61
2023-04-07T10:15:28.448Z,9.99
2023-04-07T10:17:58.391Z,9.58
2023-04-07T10:20:26.881Z,8.97
2023-04-07T10:23:01.370Z,9.75
2023-04-07T10:25:29.692Z,9.98
2023-04-07T10:28:01.263Z,9.38
2023-04-07T10:30:31.592Z,9.56
2023-04-07T10:33:01.231Z,9.69
2023-04-07T10:35:29.941Z,9.80
2023-04-07T10:38:15.236Z,10.06
2023-04-07T10:40:44.023Z,9.92
2023-04-07T10:43:12.358Z,9.54
2023-04-07T10:46:00.656Z,9.72
2023-04-07T10:48:33.016Z,9.56
2023-04-07T10:51:15.432Z,9.15
2023-04-07T10:54:20.720Z,9.61
2023-04-07T10:57:12.006Z,9.34
2023-04-07T11:00:04.406Z,8.77
2023-04-07T11:02:36.003Z,8.83
2023-04-07T11:05:05.902Z,9.14
2023-04-07T11:07:48.845Z,9.88
2023-04-07T11:10:18.944Z,9.67
2023-04-07T11:13:02.695Z,9.18
2023-04-07T11:15:30.448Z,9.06
2023-04-07T11:18:16.254Z,9.49
2023-04-07T11:20:50.256Z,9.26
2023-04-07T11:23:19.530Z,8.79
2023-04-07T11:25:49.075Z,9.45
2023-04-07T11:28:16.865Z,9.11
2023-04-07T11:30:51.576Z,9.15
2023-04-07T11:33:21.104Z,8.74
2023-04-07T11:35:52.131Z,9.12
2023-04-07T11:38:21.042Z,9.38
2023-04-07T11:40:49.264Z,8.80
2023-04-07T11:43:19.024Z,8.80
2023-04-07T11:45:46.861Z,9.00
2023-04-07T11:48:31.395Z,9.36
2023-04-07T11:51:01.016Z,9.00
2023-04-07T11:53:30.548Z,9.18
2023-04-07T11:56:10.115Z,9.10
2023-04-07T11:58:38.720Z,9.09
2023-04-07T12:01:09.025Z,8.65
2023-04-07T12:03:38.632Z,8.35
2023-04-07T12:06:07.831Z,9.05
2023-04-07T12:08:39.965Z,8.78
2023-04-07T12:11:07.990Z,8.98
2023-04-07T12:13:35.967Z,8.91
2023-04-07T12:16:03.901Z,8.78
2023-04-07T12:18:32.028Z,8.98
2023-04-07T12:20:59.823Z,9.00
2023-04-07T12:23:28.945Z,8.44
2023-04-07T12:25:56.715Z,8.38
2023-04-07T12:28:24.500Z,8.79
2023-04-07T12:30:52.234Z,9.00
2023-04-07T12:33:20.005Z,8.69
2023-04-07T12:35:47.742Z,8.73
2023-04-07T12:38:15.656Z,8.27
2023-04-07T12:40:44.882Z,8.65
2023-04-07T12:43:12.899Z,8.67
2023-04-07T12:45:40.733Z,8.39
2023-04-07T12:48:08.644Z,8.72
2023-04-07T12:50:36.907Z,9.31
2023-04-07T12:53:05.459Z,9.36
2023-04-07T12:55:35.633Z,9.52
2023-04-07T12:58:04.791Z,9.28
2023-04-07T13:00:32.551Z,9.24
2023-04-07T13:03:00.406Z,9.01
2023-04-07T13:05:29.567Z,8.25
2023-04-07T13:07:57.275Z,8.35
2023-04-07T13:10:25.008Z,8.57
2023-04-07T13:12:53.298Z,8.43
2023-04-07T13:15:22.612Z,9.20
2023-04-07T13:17:50.611Z,8.49
2023-04-07T13:20:20.677Z,8.49
2023-04-07T13:22:59.267Z,8.91
2023-04-07T13:25:31.541Z,9.13
2023-04-07T13:27:59.756Z,9.19
2023-04-07T13:30:28.916Z,8.77
2023-04-07T13:32:57.081Z,8.83
2023-04-07T13:35:25.214Z,8.65
2023-04-07T13:37:52.935Z,8.59
2023-04-07T13:40:20.898Z,8.95
2023-04-07T13:42:48.617Z,8.60
2023-04-07T13:45:16.470Z,9.42
2023-04-07T13:47:46.127Z,8.94
2023-04-07T13:50:13.911Z,9.04
2023-04-07T13:52:41.769Z,9.33
2023-04-07T13:55:10.513Z,9.19
2023-04-07T13:57:38.287Z,9.15
2023-04-07T14:00:07.528Z,9.23
2023-04-07T14:02:35.640Z,8.73
2023-04-07T14:05:05.174Z,9.33
2023-04-07T14:07:32.907Z,8.48
2023-04-07T14:10:00.643Z,8.63
2023-04-07T14:12:28.437Z,8.79
2023-04-07T14:14:56.601Z,9.09
2023-04-07T14:17:24.710Z,8.82
2023-04-07T14:19:52.479Z,8.69
2023-04-07T14:22:21.558Z,8.40
2023-04-07T14:24:49.302Z,8.61
2023-04-07T14:27:20.995Z,9.01
2023-04-07T14:29:49.034Z,8.87
2023-04-07T14:32:16.964Z,9.50
2023-04-07T14:34:44.732Z,9.34
2023-04-07T14:37:14.111Z,9.03
2023-04-07T14:39:55.288Z,8.52
2023-04-07T14:42:30.697Z,8.35
2023-04-07T14:44:58.742Z,9.01
2023-04-07T14:47:27.449Z,8.18
2023-04-07T14:49:55.664Z,8.61
2023-04-07T14:52:23.450Z,9.30
2023-04-07T14:54:52.607Z,8.51
2023-04-07T14:57:20.313Z,8.29
2023-04-07T14:59:48.718Z,8.75
2023-04-07T15:02:17.030Z,8.83
2023-04-07T15:04:45.050Z,8.81
2023-04-07T15:07:12.812Z,8.76
2023-04-07T15:09:40.568Z,8.63
2023-04-07T15:12:09.660Z,9.22
2023-04-07T15:14:37.391Z,8.48
2023-04-07T15:17:05.156Z,8.36
2023-04-07T15:19:32.926Z,8.48
2023-04-07T15:22:00.663Z,8.88
2023-04-07T15:24:28.412Z,8.58
2023-04-07T15:26:56.115Z,8.50
2023-04-07T15:29:25.457Z,8.20
2023-04-07T15:31:53.316Z,8.74
2023-04-07T15:34:21.150Z,8.55
2023-04-07T15:36:48.870Z,8.90
2023-04-07T15:39:16.932Z,8.37
2023-04-07T15:41:44.664Z,8.59
2023-04-07T15:44:18.655Z,8.59
2023-04-07T15:46:47.913Z,8.75
2023-04-07T15:49:20.062Z,9.16
2023-04-07T15:51:47.865Z,9.43
2023-04-07T15:54:15.860Z,9.08
2023-04-07T15:56:43.590Z,8.91
2023-04-07T15:59:11.350Z,9.14
2023-04-07T16:01:39.425Z,8.63
2023-04-07T16:04:08.933Z,9.04
2023-04-07T16:06:36.812Z,8.52
2023-04-07T16:09:05.056Z,8.35
2023-04-07T16:11:32.859Z,8.79
2023-04-07T16:14:00.660Z,8.21
2023-04-07T16:16:28.628Z,8.38
2023-04-07T16:18:56.401Z,8.42
2023-04-07T16:21:26.557Z,8.63
2023-04-07T16:23:54.298Z,9.03
2023-04-07T16:26:22.133Z,8.68
2023-04-07T16:28:50.485Z,8.50
2023-04-07T16:31:18.290Z,8.63
2023-04-07T16:33:46.191Z,8.36
2023-04-07T16:36:14.046Z,9.06
2023-04-07T16:38:43.181Z,8.37
2023-04-07T16:41:10.980Z,8.40
2023-04-07T16:43:38.881Z,8.61
2023-04-07T16:46:06.936Z,8.32
2023-04-07T16:48:34.756Z,8.79
2023-04-07T16:51:02.522Z,8.64
2023-04-07T16:53:30.237Z,8.42
2023-04-07T16:55:59.339Z,8.04
2023-04-07T16:58:27.094Z,8.29
2023-04-07T17:00:54.838Z,8.47
2023-04-07T17:03:22.638Z,8.64
2023-04-07T17:05:51.048Z,8.64
2023-04-07T17:08:18.798Z,8.58
2023-04-07T17:10:46.574Z,9.45
2023-04-07T17:13:15.879Z,9.17
2023-04-07T17:15:43.670Z,8.93
2023-04-07T17:18:11.450Z,8.39
2023-04-07T17:20:39.321Z,8.43
2023-04-07T17:23:07.053Z,9.18
2023-04-07T17:25:34.776Z,8.85
2023-04-07T17:28:02.522Z,8.91
2023-04-07T17:30:31.683Z,8.99
2023-04-07T17:32:59.430Z,9.06
2023-04-07T17:35:27.195Z,8.93
2023-04-07T17:37:56.504Z,8.54
2023-04-07T17:40:24.562Z,8.24
2023-04-07T17:42:52.299Z,8.80
2023-04-07T17:45:20.073Z,8.83
2023-04-07T17:47:49.320Z,8.42
2023-04-07T17:50:17.260Z,8.79
2023-04-07T17:52:45.291Z,8.51
2023-04-07T17:55:13.242Z,8.68
2023-04-07T17:57:42.272Z,9.03
2023-04-07T18:00:10.586Z,8.74
2023-04-07T18:02:40.318Z,9.34
2023-04-07T18:05:10.653Z,9.00
2023-04-07T18:07:38.813Z,8.36
2023-04-07T18:10:07.620Z,8.87
2023-04-07T18:12:35.432Z,9.26
2023-04-07T18:15:03.209Z,8.57
2023-04-07T18:17:31.185Z,8.86
2023-04-07T18:19:58.965Z,8.86
2023-04-07T18:22:28.201Z,9.21
2023-04-07T18:24:55.914Z,9.20
2023-04-07T18:27:25.288Z,8.63
2023-04-07T18:29:53.026Z,8.30
2023-04-07T18:32:20.784Z,8.57
2023-04-07T18:34:48.837Z,8.82
2023-04-07T18:37:16.599Z,8.64
2023-04-07T18:39:45.741Z,9.01
2023-04-07T18:42:13.528Z,8.39
2023-04-07T18:44:41.285Z,8.82
2023-04-07T18:47:09.010Z,8.57
2023-04-07T18:49:37.230Z,8.50
2023-04-07T18:52:04.975Z,9.01
2023-04-07T18:54:32.878Z,8.67
2023-04-07T18:57:02.532Z,8.93
2023-04-07T18:59:30.969Z,9.13
2023-04-07T19:01:58.804Z,8.51
2023-04-07T19:04:26.612Z,8.95
2023-04-07T19:06:54.896Z,8.93
2023-04-07T19:09:22.630Z,8.65
2023-04-07T19:11:51.354Z,8.99
2023-04-07T19:14:20.466Z,9.07
2023-04-07T19:16:48.355Z,9.21
2023-04-07T19:19:17.296Z,9.02
2023-04-07T19:21:45.238Z,9.08
2023-04-07T19:24:12.956Z,8.93
2023-04-07T19:26:40.966Z,8.96
2023-04-07T19:29:10.639Z,9.01
2023-04-07T19:31:40.073Z,9.09
2023-04-07T19:34:07.808Z,9.60
2023-04-07T19:36:35.733Z,8.85
2023-04-07T19:39:05.293Z,9.10
2023-04-07T19:41:33.069Z,8.91
2023-04-07T19:44:01.151Z,8.87
2023-04-07T19:46:29.197Z,8.93
2023-04-07T19:48:58.332Z,8.63
2023-04-07T19:51:26.061Z,9.11
2023-04-07T19:53:53.811Z,9.33
2023-04-07T19:56:21.573Z,8.49
2023-04-07T19:58:49.566Z,8.65
2023-04-07T20:01:17.989Z,8.90
2023-04-07T20:03:46.843Z,9.20
2023-04-07T20:06:17.174Z,9.31
2023-04-07T20:08:44.927Z,9.19
2023-04-07T20:11:13.416Z,8.94
2023-04-07T20:13:42.354Z,8.97
2023-04-07T20:16:10.460Z,9.32
2023-04-07T20:18:38.305Z,8.86
2023-04-07T20:21:06.943Z,8.81
2023-04-07T20:23:36.592Z,9.13
2023-04-07T20:26:04.343Z,9.35
2023-04-07T20:28:32.283Z,8.72
2023-04-07T20:31:00.415Z,8.74
2023-04-07T20:33:28.220Z,8.99
2023-04-07T20:35:56.290Z,9.15
2023-04-07T20:38:25.003Z,8.73
2023-04-07T20:40:54.310Z,9.34
2023-04-07T20:43:23.731Z,8.98
2023-04-07T20:45:52.167Z,8.43
2023-04-07T20:48:23.779Z,8.76
2023-04-07T20:50:52.061Z,8.61
2023-04-07T20:53:19.855Z,8.68
2023-04-07T20:55:48.389Z,9.14
2023-04-07T20:58:18.558Z,9.38
2023-04-07T21:00:46.645Z,8.84
2023-04-07T21:03:14.926Z,8.73
2023-04-07T21:05:43.497Z,8.82
2023-04-07T21:08:13.255Z,9.34
2023-04-07T21:10:42.252Z,8.73
2023-04-07T21:13:09.978Z,9.19
2023-04-07T21:15:39.095Z,9.59
2023-04-07T21:18:06.973Z,8.49
2023-04-07T21:20:36.921Z,8.55
2023-04-07T21:23:05.494Z,9.03
2023-04-07T21:25:33.253Z,9.23
2023-04-07T21:28:01.071Z,8.47
2023-04-07T21:30:28.836Z,8.11
2023-04-07T21:32:59.066Z,8.95
2023-04-07T21:35:28.325Z,8.62
2023-04-07T21:37:56.807Z,8.94
2023-04-07T21:40:24.570Z,9.16
2023-04-07T21:42:52.910Z,8.86
2023-04-07T21:45:20.676Z,8.20
2023-04-07T21:47:48.428Z,8.68
2023-04-07T21:50:17.606Z,9.04
2023-04-07T21:52:45.357Z,8.90
2023-04-07T21:55:13.297Z,8.74
2023-04-07T21:57:41.112Z,8.56
2023-04-07T22:00:10.674Z,8.48
2023-04-07T22:02:39.050Z,8.91
2023-04-07T22:05:07.484Z,8.68
2023-04-07T22:07:36.574Z,8.77
2023-04-07T22:10:06.293Z,8.95
2023-04-07T22:12:34.024Z,8.65
2023-04-07T22:15:01.830Z,8.34
2023-04-07T22:17:29.666Z,8.97
2023-04-07T22:19:57.447Z,8.94
2023-04-07T22:22:25.303Z,9.07
2023-04-07T22:24:54.401Z,8.93
2023-04-07T22:27:22.122Z,9.25
2023-04-07T22:29:49.879Z,8.82
2023-04-07T22:32:17.663Z,9.21
2023-04-07T22:34:45.712Z,8.83
2023-04-07T22:37:13.616Z,9.29
2023-04-07T22:39:41.330Z,9.29
2023-04-07T22:42:10.435Z,9.13
2023-04-07T22:44:38.209Z,8.85
2023-04-07T22:47:06.035Z,8.50
2023-04-07T22:49:33.923Z,8.96
2023-04-07T22:52:01.637Z,8.74
2023-04-07T22:54:29.464Z,9.18
2023-04-07T22:56:57.431Z,8.85
2023-04-07T22:59:26.545Z,8.25
2023-04-07T23:01:56.306Z,8.42
2023-04-07T23:04:25.565Z,8.41
2023-04-07T23:06:53.273Z,8.20
2023-04-07T23:09:21.005Z,8.26
2023-04-07T23:11:48.778Z,8.32
2023-04-07T23:14:16.544Z,8.38
2023-04-07T23:16:45.713Z,8.48
2023-04-07T23:19:15.711Z,8.46
2023-04-07T23:21:44.157Z,8.55
2023-04-07T23:24:12.159Z,7.99
2023-04-07T23:26:39.961Z,8.06
2023-04-07T23:29:07.744Z,8.66
2023-04-07T23:31:36.160Z,8.32
2023-04-07T23:34:05.739Z,8.32
2023-04-07T23:36:33.479Z,7.80
2023-04-07T23:39:02.324Z,8.10
2023-04-07T23:41:30.046Z,8.28
2023-04-07T23:43:57.823Z,7.89
2023-04-07T23:46:25.841Z,7.75
2023-04-07T23:48:53.699Z,8.53
2023-04-07T23:51:22.860Z,8.29
2023-04-07T23:53:50.759Z,8.05
2023-04-07T23:56:18.543Z,8.39
2023-04-07T23:58:46.617Z,8.52
